^^
Your Local Weather - Clay, NY Station Historical Data
Daily Summary for February 23, 2018 Units:  English    Metric   Both
« Previous Day
Next Day »
Daily Weekly Monthly Yearly Custom
  High: Low: Average:
Temperature: 48.0 °F 29.4 °F 36.5 °F
Dew Point: 43.8 °F 27.3 °F 33.4 °F
Humidity: 93% 83% 89%
Wind Speed: 10.0mph 0.0mph 2.9mph
Wind Gust: 15.0mph - -
Wind- - SE
Pressure: 30.65 in 30.04 in -
Precipitation: 0.08 in    
Historical Graphs
 
 
Tabular Data for February 23, 2018
Time Temperature Dew Point Pressure Wind Wind Speed Wind Gust Humidity Rainfall Rate (Hourly) solar
00:00 32.0 °F 30.2 °F 30.65 in Calm     93% 0.00 in 0 W/m2
00:06 32.0 °F 30.2 °F 30.65 in Calm     93% 0.00 in 0 W/m2
00:12 32.0 °F 30.2 °F 30.65 in Calm     93% 0.00 in 0 W/m2
00:18 32.0 °F 30.2 °F 30.64 in Calm   2.0 mph 93% 0.00 in 0 W/m2
00:24 32.0 °F 30.2 °F 30.64 in Calm   2.0 mph 93% 0.00 in 0 W/m2
00:30 32.0 °F 30.2 °F 30.64 in NE 1.0 mph 3.0 mph 93% 0.00 in 0 W/m2
00:36 32.0 °F 30.2 °F 30.64 in NE 1.0 mph 3.0 mph 93% 0.00 in 0 W/m2
00:42 32.1 °F 30.3 °F 30.64 in NE 1.0 mph 2.0 mph 93% 0.00 in 0 W/m2
00:48 32.1 °F 30.3 °F 30.64 in NE 1.0 mph 2.0 mph 93% 0.00 in 0 W/m2
00:54 32.1 °F 30.3 °F 30.64 in East 1.0 mph 5.0 mph 93% 0.00 in 0 W/m2
01:00 32.1 °F 30.3 °F 30.64 in East 2.0 mph 3.0 mph 93% 0.00 in 0 W/m2
01:06 31.9 °F 30.1 °F 30.63 in East 2.0 mph 3.0 mph 93% 0.00 in 0 W/m2
01:12 31.8 °F 30.0 °F 30.63 in ESE 2.0 mph 2.0 mph 93% 0.00 in 0 W/m2
01:18 31.7 °F 29.9 °F 30.62 in East 2.0 mph 3.0 mph 93% 0.00 in 0 W/m2
01:24 31.6 °F 29.8 °F 30.61 in ENE 2.0 mph 2.0 mph 93% 0.00 in 0 W/m2
01:30 31.6 °F 29.8 °F 30.61 in ENE 2.0 mph 4.0 mph 93% 0.00 in 0 W/m2
01:36 31.4 °F 29.6 °F 30.61 in ESE 2.0 mph 4.0 mph 93% 0.00 in 0 W/m2
01:42 31.3 °F 29.5 °F 30.61 in East 1.0 mph 2.0 mph 93% 0.00 in 0 W/m2
01:48 31.3 °F 29.5 °F 30.61 in ENE 1.0 mph 2.0 mph 93% 0.00 in 0 W/m2
01:54 31.2 °F 29.4 °F 30.61 in ENE 2.0 mph 2.0 mph 93% 0.00 in 0 W/m2
02:00 31.2 °F 29.4 °F 30.61 in ENE 1.0 mph 1.0 mph 93% 0.00 in 0 W/m2
02:06 31.1 °F 29.3 °F 30.61 in East 1.0 mph 6.0 mph 93% 0.00 in 0 W/m2
02:12 31.0 °F 29.2 °F 30.61 in East 2.0 mph 5.0 mph 93% 0.00 in 0 W/m2
02:18 30.9 °F 29.1 °F 30.61 in East 2.0 mph 5.0 mph 93% 0.00 in 0 W/m2
02:24 30.8 °F 29.0 °F 30.61 in NE 2.0 mph 4.0 mph 93% 0.00 in 0 W/m2
02:30 30.7 °F 28.9 °F 30.60 in NE 3.0 mph 3.0 mph 93% 0.00 in 0 W/m2
02:36 30.6 °F 28.8 °F 30.60 in ENE 3.0 mph 3.0 mph 93% 0.00 in 0 W/m2
02:42 30.4 °F 28.6 °F 30.60 in NE 3.0 mph 3.0 mph 93% 0.00 in 0 W/m2
02:48 30.3 °F 28.5 °F 30.60 in East 3.0 mph 3.0 mph 93% 0.00 in 0 W/m2
02:54 30.2 °F 28.4 °F 30.60 in ENE 3.0 mph 5.0 mph 93% 0.00 in 0 W/m2
03:00 30.2 °F 28.4 °F 30.60 in NNE 3.0 mph 5.0 mph 93% 0.00 in 0 W/m2
03:06 30.2 °F 28.4 °F 30.59 in ENE 3.0 mph 9.0 mph 93% 0.00 in 0 W/m2
03:12 30.2 °F 28.4 °F 30.59 in East 4.0 mph 7.0 mph 93% 0.00 in 0 W/m2
03:18 30.1 °F 28.3 °F 30.58 in East 4.0 mph 8.0 mph 93% 0.00 in 0 W/m2
03:24 30.1 °F 28.3 °F 30.58 in East 3.0 mph 5.0 mph 93% 0.00 in 0 W/m2
03:30 30.1 °F 28.3 °F 30.58 in East 3.0 mph 3.0 mph 93% 0.00 in 0 W/m2
03:36 30.0 °F 28.2 °F 30.58 in ENE 3.0 mph 4.0 mph 93% 0.00 in 0 W/m2
03:42 30.0 °F 28.2 °F 30.57 in SE 4.0 mph 5.0 mph 93% 0.00 in 0 W/m2
03:48 30.1 °F 28.3 °F 30.57 in SE 4.0 mph 5.0 mph 93% 0.00 in 0 W/m2
03:54 30.0 °F 28.2 °F 30.57 in East 3.0 mph 6.0 mph 93% 0.00 in 0 W/m2
04:00 30.0 °F 28.2 °F 30.56 in ENE 3.0 mph 3.0 mph 93% 0.00 in 0 W/m2
04:06 30.0 °F 28.2 °F 30.57 in SE 2.0 mph 6.0 mph 93% 0.00 in 0 W/m2
04:12 30.0 °F 28.2 °F 30.57 in SSE 3.0 mph 7.0 mph 93% 0.00 in 0 W/m2
04:18 30.0 °F 28.2 °F 30.57 in SE 3.0 mph 7.0 mph 93% 0.00 in 0 W/m2
04:24 30.0 °F 28.2 °F 30.57 in SE 3.0 mph 5.0 mph 93% 0.00 in 0 W/m2
04:30 30.0 °F 28.2 °F 30.56 in NE 3.0 mph 3.0 mph 93% 0.00 in 0 W/m2
04:36 30.0 °F 28.0 °F 30.56 in East 3.0 mph 5.0 mph 92% 0.00 in 0 W/m2
04:42 29.9 °F 27.9 °F 30.55 in East 3.0 mph 7.0 mph 92% 0.00 in 0 W/m2
04:48 29.7 °F 27.7 °F 30.55 in ENE 3.0 mph 7.0 mph 92% 0.00 in 0 W/m2
04:54 29.6 °F 27.6 °F 30.55 in NE 2.0 mph 7.0 mph 92% 0.00 in 0 W/m2
05:00 29.5 °F 27.5 °F 30.54 in SE 2.0 mph 2.0 mph 92% 0.00 in 0 W/m2
05:06 29.5 °F 27.5 °F 30.54 in SE 2.0 mph 4.0 mph 92% 0.00 in 0 W/m2
05:12 29.4 °F 27.4 °F 30.54 in ESE 1.0 mph 2.0 mph 92% 0.00 in 0 W/m2
05:18 29.4 °F 27.4 °F 30.54 in ENE 2.0 mph 2.0 mph 92% 0.00 in 0 W/m2
05:24 29.4 °F 27.4 °F 30.54 in SE 2.0 mph 3.0 mph 92% 0.00 in 0 W/m2
05:30 29.5 °F 27.5 °F 30.53 in ENE 3.0 mph 3.0 mph 92% 0.00 in 0 W/m2
05:36 29.6 °F 27.6 °F 30.53 in SSE 3.0 mph 6.0 mph 92% 0.00 in 0 W/m2
05:42 29.7 °F 27.4 °F 30.53 in SE 3.0 mph 6.0 mph 91% 0.00 in 0 W/m2
05:48 29.8 °F 27.5 °F 30.52 in ENE 4.0 mph 6.0 mph 91% 0.00 in 0 W/m2
05:54 29.9 °F 27.6 °F 30.52 in ENE 4.0 mph 4.0 mph 91% 0.00 in 0 W/m2
06:00 29.9 °F 27.6 °F 30.52 in East 4.0 mph 4.0 mph 91% 0.00 in 0 W/m2
06:06 30.0 °F 27.7 °F 30.52 in SE 3.0 mph 4.0 mph 91% 0.00 in 0 W/m2
06:12 30.0 °F 27.4 °F 30.51 in East 3.0 mph 5.0 mph 90% 0.00 in 0 W/m2
06:18 30.0 °F 27.4 °F 30.50 in East 3.0 mph 8.0 mph 90% 0.00 in 0 W/m2
06:24 30.0 °F 27.4 °F 30.50 in ENE 3.0 mph 7.0 mph 90% 0.00 in 0 W/m2
06:30 30.0 °F 27.4 °F 30.49 in ENE 4.0 mph 4.0 mph 90% 0.00 in 0 W/m2
06:36 30.1 °F 27.5 °F 30.49 in ESE 3.0 mph 5.0 mph 90% 0.00 in 0 W/m2
06:42 30.2 °F 27.3 °F 30.49 in ESE 3.0 mph 4.0 mph 89% 0.00 in 0 W/m2
06:48 30.3 °F 27.4 °F 30.49 in ESE 3.0 mph 5.0 mph 89% 0.00 in 0 W/m2
06:54 30.4 °F 27.5 °F 30.48 in ESE 3.0 mph 4.0 mph 89% 0.00 in 5 W/m2
07:00 30.5 °F 27.6 °F 30.48 in ESE 4.0 mph 4.0 mph 89% 0.00 in 5 W/m2
07:06 30.6 °F 27.5 °F 30.48 in East 4.0 mph 6.0 mph 88% 0.00 in 12 W/m2
07:12 30.6 °F 27.5 °F 30.48 in East 4.0 mph 4.0 mph 88% 0.00 in 19 W/m2
07:18 30.6 °F 27.5 °F 30.48 in ESE 3.0 mph 4.0 mph 88% 0.00 in 32 W/m2
07:24 30.7 °F 27.6 °F 30.48 in East 3.0 mph 3.0 mph 88% 0.00 in 39 W/m2
07:30 30.8 °F 27.7 °F 30.48 in ENE 4.0 mph 4.0 mph 88% 0.00 in 46 W/m2
07:36 30.9 °F 27.8 °F 30.48 in East 4.0 mph 4.0 mph 88% 0.00 in 54 W/m2
07:42 31.1 °F 28.0 °F 30.48 in East 3.0 mph 6.0 mph 88% 0.00 in 49 W/m2
07:48 31.2 °F 27.8 °F 30.48 in ENE 3.0 mph 6.0 mph 87% 0.00 in 51 W/m2
07:54 31.2 °F 27.8 °F 30.46 in East 3.0 mph 6.0 mph 87% 0.00 in 60 W/m2
08:00 31.2 °F 27.8 °F 30.46 in ESE 3.0 mph 4.0 mph 87% 0.00 in 67 W/m2
08:06 31.3 °F 27.9 °F 30.45 in ESE 3.0 mph 7.0 mph 87% 0.00 in 60 W/m2
08:12 31.4 °F 28.0 °F 30.46 in ESE 4.0 mph 5.0 mph 87% 0.00 in 60 W/m2
08:18 31.5 °F 27.8 °F 30.46 in East 3.0 mph 6.0 mph 86% 0.00 in 67 W/m2
08:24 31.6 °F 27.9 °F 30.45 in East 4.0 mph 5.0 mph 86% 0.00 in 81 W/m2
08:30 31.8 °F 28.1 °F 30.45 in East 2.0 mph 5.0 mph 86% 0.00 in 77 W/m2
08:36 31.8 °F 28.1 °F 30.44 in East 3.0 mph 7.0 mph 86% 0.00 in 88 W/m2
08:42 31.9 °F 28.2 °F 30.44 in ENE 4.0 mph 4.0 mph 86% 0.00 in 83 W/m2
08:48 31.9 °F 28.2 °F 30.43 in East 3.0 mph 4.0 mph 86% 0.00 in 83 W/m2
08:54 31.9 °F 28.2 °F 30.42 in ESE 3.0 mph 6.0 mph 86% 0.00 in 79 W/m2
09:00 31.9 °F 27.9 °F 30.41 in ESE 4.0 mph 8.0 mph 85% 0.00 in 88 W/m2
09:06 31.9 °F 27.9 °F 30.41 in ENE 3.0 mph 8.0 mph 85% 0.00 in 81 W/m2
09:12 31.8 °F 27.5 °F 30.41 in ENE 3.0 mph 6.0 mph 84% 0.00 in 79 W/m2
09:18 31.8 °F 27.5 °F 30.41 in ENE 4.0 mph 6.0 mph 84% 0.00 in 84 W/m2
09:24 31.9 °F 27.6 °F 30.40 in ENE 4.0 mph 7.0 mph 84% 0.00 in 86 W/m2
09:30 32.0 °F 27.7 °F 30.41 in ESE 4.0 mph 4.0 mph 84% 0.00 in 76 W/m2
09:36 32.1 °F 27.8 °F 30.41 in ENE 3.0 mph 4.0 mph 84% 0.00 in 95 W/m2
09:42 32.3 °F 28.0 °F 30.40 in ENE 3.0 mph 3.0 mph 84% 0.00 in 100 W/m2
09:48 32.4 °F 28.1 °F 30.40 in ESE 3.0 mph 6.0 mph 84% 0.00 in 90 W/m2
09:54 32.5 °F 28.2 °F 30.40 in ESE 3.0 mph 3.0 mph 84% 0.00 in 102 W/m2
10:00 32.7 °F 28.4 °F 30.40 in East 2.0 mph 5.0 mph 84% 0.00 in 93 W/m2
10:06 32.8 °F 28.5 °F 30.40 in ENE 2.0 mph 5.0 mph 84% 0.00 in 70 W/m2
10:12 33.0 °F 28.7 °F 30.37 in East 2.0 mph 5.0 mph 84% 0.00 in 125 W/m2
10:18 33.2 °F 28.9 °F 30.37 in ENE 3.0 mph 5.0 mph 84% 0.00 in 84 W/m2
10:24 33.1 °F 29.1 °F 30.36 in ENE 3.0 mph 5.0 mph 85% 0.00 in 69 W/m2
10:30 32.7 °F 29.0 °F 30.36 in ESE 4.0 mph 4.0 mph 86% 0.00 in 62 W/m2
10:36 32.7 °F 29.0 °F 30.36 in East 3.0 mph 4.0 mph 86% 0.00 in 54 W/m2
10:42 32.8 °F 29.4 °F 30.35 in ENE 2.0 mph 3.0 mph 87% 0.00 in 62 W/m2
10:48 33.0 °F 29.8 °F 30.34 in ENE 2.0 mph 6.0 mph 88% 0.00 in 67 W/m2
10:54 33.2 °F 30.0 °F 30.33 in East 2.0 mph 5.0 mph 88% 0.00 in 74 W/m2
11:00 33.5 °F 30.6 °F 30.32 in ENE 2.0 mph 4.0 mph 89% 0.00 in 84 W/m2
11:06 33.5 °F 30.6 °F 30.32 in East 2.0 mph 6.0 mph 89% 0.00 in 81 W/m2
11:12 33.0 °F 30.1 °F 30.32 in ESE 3.0 mph 4.0 mph 89% 0.00 in 77 W/m2
11:18 33.0 °F 30.1 °F 30.32 in ENE 3.0 mph 4.0 mph 89% 0.00 in 90 W/m2
11:24 33.3 °F 30.4 °F 30.30 in ENE 3.0 mph 5.0 mph 89% 0.00 in 132 W/m2
11:30 33.7 °F 30.8 °F 30.30 in East 3.0 mph 3.0 mph 89% 0.00 in 118 W/m2
11:36 34.2 °F 31.3 °F 30.29 in NE 3.0 mph 4.0 mph 89% 0.00 in 83 W/m2
11:42 34.6 °F 31.7 °F 30.29 in NE 3.0 mph 3.0 mph 89% 0.00 in 79 W/m2
11:48 34.7 °F 31.5 °F 30.29 in ENE 2.0 mph 3.0 mph 88% 0.00 in 81 W/m2
11:54 34.6 °F 31.4 °F 30.29 in ENE 2.0 mph 2.0 mph 88% 0.00 in 76 W/m2
12:00 34.4 °F 30.9 °F 30.29 in ENE 2.0 mph 5.0 mph 87% 0.00 in 63 W/m2
12:06 34.1 °F 30.6 °F 30.28 in ENE 3.0 mph 6.0 mph 87% 0.00 in 49 W/m2
12:12 33.9 °F 30.4 °F 30.27 in ESE 3.0 mph 4.0 mph 87% 0.00 in 51 W/m2
12:18 33.8 °F 30.3 °F 30.27 in ENE 3.0 mph 4.0 mph 87% 0.00 in 39 W/m2
12:24 33.8 °F 30.3 °F 30.27 in NE 2.0 mph 3.0 mph 87% 0.00 in 28 W/m2
12:30 34.0 °F 30.5 °F 30.27 in NE 1.0 mph 1.0 mph 87% 0.00 in 32 W/m2
12:36 34.1 °F 30.6 °F 30.26 in Calm   1.0 mph 87% 0.00 in 26 W/m2
12:42 34.5 °F 31.0 °F 30.24 in ESE 1.0 mph 5.0 mph 87% 0.00 in 28 W/m2
12:48 36.1 °F 32.9 °F 30.24 in SE 3.0 mph 5.0 mph 88% 0.00 in 25 W/m2
12:54 37.4 °F 34.2 °F 30.24 in SSE 3.0 mph 8.0 mph 88% 0.00 in 28 W/m2
13:00 39.1 °F 35.0 °F 30.24 in South 6.0 mph 6.0 mph 85% 0.00 in 35 W/m2
13:06 39.2 °F 34.5 °F 30.23 in SSE 6.0 mph 7.0 mph 83% 0.00 in 23 W/m2
13:12 39.1 °F 34.4 °F 30.23 in South 5.0 mph 8.0 mph 83% 0.00 in 23 W/m2
13:18 39.0 °F 34.3 °F 30.22 in SSE 7.0 mph 8.0 mph 83% 0.00 in 25 W/m2
13:24 39.0 °F 34.3 °F 30.22 in SE 6.0 mph 7.0 mph 83% 0.00 in 30 W/m2
13:30 38.8 °F 34.4 °F 30.21 in SSE 5.0 mph 6.0 mph 84% 0.00 in 32 W/m2
13:36 38.9 °F 34.5 °F 30.20 in SSE 6.0 mph 7.0 mph 84% 0.00 in 28 W/m2
13:42 38.9 °F 34.8 °F 30.20 in SE 6.0 mph 7.0 mph 85% 0.00 in 23 W/m2
13:48 38.9 °F 34.8 °F 30.20 in SSE 5.0 mph 12.0 mph 85% 0.00 in 19 W/m2
13:54 38.9 °F 34.8 °F 30.19 in SE 7.0 mph 10.0 mph 85% 0.00 in 30 W/m2
14:00 39.0 °F 34.9 °F 30.18 in SSE 8.0 mph 9.0 mph 85% 0.00 in 25 W/m2
14:06 39.0 °F 34.9 °F 30.18 in SE 9.0 mph 10.0 mph 85% 0.00 in 25 W/m2
14:12 39.2 °F 35.1 °F 30.16 in SSW 8.0 mph 8.0 mph 85% 0.00 in 49 W/m2
14:18 39.6 °F 35.2 °F 30.16 in South 10.0 mph 12.0 mph 84% 0.00 in 37 W/m2
14:24 39.7 °F 35.0 °F 30.16 in SE 9.0 mph 10.0 mph 83% 0.00 in 23 W/m2
14:30 39.8 °F 35.1 °F 30.16 in SSE 8.0 mph 8.0 mph 83% 0.00 in 28 W/m2
14:36 39.8 °F 35.1 °F 30.15 in South 7.0 mph 15.0 mph 83% 0.00 in 25 W/m2
14:42 39.9 °F 35.2 °F 30.15 in SE 6.0 mph 6.0 mph 83% 0.00 in 23 W/m2
14:48 39.7 °F 35.3 °F 30.14 in SSE 6.0 mph 8.0 mph 84% 0.00 in 26 W/m2
14:54 39.4 °F 35.3 °F 30.13 in SE 7.0 mph 7.0 mph 85% 0.12 in 37 W/m2
15:00 39.3 °F 35.5 °F 30.13 in SW 5.0 mph 5.0 mph 86% 0.06 in 35 W/m2
15:06 39.5 °F 36.0 °F 30.12 in SE 6.0 mph 12.0 mph 87% 0.04 in 39 W/m2
15:12 39.6 °F 35.8 °F 30.13 in SSE 8.0 mph 8.0 mph 86% 0.00 in 25 W/m2
15:18 39.6 °F 35.5 °F 30.13 in SSE 7.0 mph 10.0 mph 85% 0.00 in 16 W/m2
15:24 39.7 °F 35.6 °F 30.13 in SW 8.0 mph 9.0 mph 85% 0.00 in 25 W/m2
15:30 39.8 °F 35.7 °F 30.13 in SSE 7.0 mph 7.0 mph 85% 0.00 in 21 W/m2
15:36 39.8 °F 35.7 °F 30.12 in SE 6.0 mph 7.0 mph 85% 0.00 in 19 W/m2
15:42 39.8 °F 35.7 °F 30.12 in SE 7.0 mph 8.0 mph 85% 0.00 in 18 W/m2
15:48 39.8 °F 35.7 °F 30.11 in SE 6.0 mph 8.0 mph 85% 0.00 in 32 W/m2
15:54 39.8 °F 35.7 °F 30.11 in SSE 6.0 mph 7.0 mph 85% 0.00 in 30 W/m2
16:00 39.8 °F 35.7 °F 30.12 in SSE 5.0 mph 6.0 mph 85% 0.00 in 21 W/m2
16:06 39.8 °F 36.0 °F 30.11 in SE 4.0 mph 6.0 mph 86% 0.00 in 18 W/m2
16:12 39.8 °F 36.0 °F 30.10 in South 3.0 mph 4.0 mph 86% 0.00 in 11 W/m2
16:18 39.9 °F 36.1 °F 30.10 in South 3.0 mph 6.0 mph 86% 0.00 in 14 W/m2
16:24 40.0 °F 36.2 °F 30.10 in SE 4.0 mph 4.0 mph 86% 0.00 in 14 W/m2
16:30 40.1 °F 36.2 °F 30.09 in ESE 3.0 mph 5.0 mph 86% 0.00 in 19 W/m2
16:36 40.3 °F 36.1 °F 30.09 in SE 4.0 mph 5.0 mph 85% 0.00 in 12 W/m2
16:42 40.4 °F 36.2 °F 30.08 in SSE 4.0 mph 4.0 mph 85% 0.00 in 9 W/m2
16:48 40.6 °F 36.1 °F 30.09 in SSE 3.0 mph 4.0 mph 84% 0.00 in 5 W/m2
16:54 40.7 °F 36.5 °F 30.08 in SE 3.0 mph 4.0 mph 85% 0.00 in 7 W/m2
17:00 40.7 °F 36.5 °F 30.08 in ESE 3.0 mph 3.0 mph 85% 0.06 in 7 W/m2
17:06 40.6 °F 36.7 °F 30.07 in ESE 2.0 mph 3.0 mph 86% 0.06 in 0 W/m2
17:12 40.3 °F 36.7 °F 30.07 in ESE 1.0 mph 2.0 mph 87% 0.05 in 0 W/m2
17:18 40.2 °F 36.6 °F 30.07 in ESE 1.0 mph 2.0 mph 87% 0.00 in 0 W/m2
17:24 40.1 °F 36.8 °F 30.07 in ESE 1.0 mph 2.0 mph 88% 0.00 in 0 W/m2
17:30 40.0 °F 36.7 °F 30.08 in ESE 1.0 mph 3.0 mph 88% 0.00 in 0 W/m2
17:36 39.9 °F 36.9 °F 30.08 in Calm   3.0 mph 89% 0.00 in 0 W/m2
17:42 39.7 °F 36.7 °F 30.08 in Calm   1.0 mph 89% 0.00 in 0 W/m2
17:48 39.8 °F 37.1 °F 30.07 in ESE 1.0 mph 2.0 mph 90% 0.00 in 0 W/m2
17:54 40.0 °F 37.3 °F 30.08 in ESE 1.0 mph 1.0 mph 90% 0.00 in 0 W/m2
18:00 40.0 °F 37.3 °F 30.07 in Calm   2.0 mph 90% 0.00 in 0 W/m2
18:06 40.1 °F 37.4 °F 30.07 in SE 1.0 mph 2.0 mph 90% 0.00 in 0 W/m2
18:12 40.2 °F 37.5 °F 30.07 in SE 1.0 mph 2.0 mph 90% 0.00 in 0 W/m2
18:18 40.4 °F 38.0 °F 30.07 in SE 1.0 mph 3.0 mph 91% 0.00 in 0 W/m2
18:24 40.5 °F 38.1 °F 30.07 in SE 1.0 mph 3.0 mph 91% 0.00 in 0 W/m2
18:30 40.6 °F 38.2 °F 30.07 in Calm   2.0 mph 91% 0.00 in 0 W/m2
18:36 41.0 °F 38.6 °F 30.07 in SE 1.0 mph 2.0 mph 91% 0.00 in 0 W/m2
18:42 41.4 °F 39.0 °F 30.07 in SSE 1.0 mph 2.0 mph 91% 0.00 in 0 W/m2
18:48 41.4 °F 39.0 °F 30.07 in Calm   2.0 mph 91% 0.00 in 0 W/m2
18:54 41.1 °F 38.7 °F 30.06 in Calm   1.0 mph 91% 0.00 in 0 W/m2
19:00 41.7 °F 39.3 °F 30.06 in SSE 1.0 mph 1.0 mph 91% 0.00 in 0 W/m2
19:06 41.7 °F 39.3 °F 30.06 in SSW 1.0 mph 3.0 mph 91% 0.00 in 0 W/m2
19:12 43.2 °F 41.0 °F 30.06 in SSW 1.0 mph 2.0 mph 92% 0.00 in 0 W/m2
19:18 42.0 °F 39.6 °F 30.07 in SSW 1.0 mph 2.0 mph 91% 0.00 in 0 W/m2
19:24 41.6 °F 39.2 °F 30.05 in Calm   1.0 mph 91% 0.00 in 0 W/m2
19:30 41.5 °F 39.1 °F 30.06 in Calm     91% 0.00 in 0 W/m2
19:36 41.3 °F 38.9 °F 30.06 in Calm   1.0 mph 91% 0.00 in 0 W/m2
19:42 41.5 °F 39.1 °F 30.06 in Calm   2.0 mph 91% 0.00 in 0 W/m2
19:48 42.1 °F 39.7 °F 30.05 in Calm   2.0 mph 91% 0.00 in 0 W/m2
19:54 42.3 °F 39.9 °F 30.05 in Calm   2.0 mph 91% 0.00 in 0 W/m2
20:00 43.7 °F 41.5 °F 30.06 in SSW 1.0 mph 3.0 mph 92% 0.00 in 0 W/m2
20:06 44.9 °F 42.7 °F 30.06 in SE 2.0 mph 3.0 mph 92% 0.00 in 0 W/m2
20:12 45.4 °F 42.9 °F 30.05 in South 2.0 mph 2.0 mph 91% 0.00 in 0 W/m2
20:18 45.5 °F 43.0 °F 30.05 in SSE 1.0 mph 3.0 mph 91% 0.00 in 0 W/m2
20:24 45.7 °F 42.9 °F 30.05 in South 2.0 mph 3.0 mph 90% 0.00 in 0 W/m2
20:30 45.9 °F 42.8 °F 30.05 in South 2.0 mph 2.0 mph 89% 0.00 in 0 W/m2
20:36 45.9 °F 42.8 °F 30.05 in South 2.0 mph 3.0 mph 89% 0.00 in 0 W/m2
20:42 46.4 °F 43.3 °F 30.05 in SSW 2.0 mph 3.0 mph 89% 0.00 in 0 W/m2
20:48 46.9 °F 43.5 °F 30.05 in SSW 2.0 mph 4.0 mph 88% 0.00 in 0 W/m2
20:54 47.2 °F 43.8 °F 30.05 in SSW 3.0 mph 7.0 mph 88% 0.00 in 0 W/m2
21:00 47.4 °F 43.7 °F 30.05 in SW 3.0 mph 3.0 mph 87% 0.00 in 0 W/m2
21:06 47.6 °F 43.6 °F 30.05 in SSW 2.0 mph 7.0 mph 86% 0.00 in 0 W/m2
21:12 47.8 °F 43.8 °F 30.04 in SW 4.0 mph 5.0 mph 86% 0.00 in 0 W/m2
21:18 47.8 °F 43.5 °F 30.04 in SW 3.0 mph 5.0 mph 85% 0.00 in 0 W/m2
21:24 47.9 °F 43.6 °F 30.04 in SW 4.0 mph 7.0 mph 85% 0.00 in 0 W/m2
21:30 47.9 °F 43.6 °F 30.04 in SSW 4.0 mph 5.0 mph 85% 0.00 in 0 W/m2
21:36 47.9 °F 43.6 °F 30.04 in SSW 3.0 mph 5.0 mph 85% 0.00 in 0 W/m2
21:42 47.8 °F 43.5 °F 30.05 in SSW 2.0 mph 3.0 mph 85% 0.00 in 0 W/m2
21:48 48.0 °F 43.7 °F 30.05 in SSW 3.0 mph 4.0 mph 85% 0.00 in 0 W/m2
21:54 48.0 °F 43.7 °F 30.05 in SW 3.0 mph 3.0 mph 85% 0.00 in 0 W/m2
22:00 47.9 °F 43.6 °F 30.05 in South 2.0 mph 3.0 mph 85% 0.00 in 0 W/m2
22:06 48.0 °F 43.7 °F 30.05 in SW 3.0 mph 4.0 mph 85% 0.00 in 0 W/m2
22:12 48.0 °F 43.7 °F 30.05 in West 3.0 mph 3.0 mph 85% 0.00 in 0 W/m2
22:18 48.0 °F 43.4 °F 30.05 in WSW 3.0 mph 3.0 mph 84% 0.00 in 0 W/m2
22:24 47.8 °F 43.5 °F 30.06 in WSW 2.0 mph 3.0 mph 85% 0.00 in 0 W/m2
22:30 47.6 °F 43.3 °F 30.07 in WSW 1.0 mph 1.0 mph 85% 0.00 in 0 W/m2
22:36 47.3 °F 43.3 °F 30.07 in NW 1.0 mph 3.0 mph 86% 0.00 in 0 W/m2
22:42 46.9 °F 43.2 °F 30.07 in NW 2.0 mph 3.0 mph 87% 0.00 in 0 W/m2
22:48 46.4 °F 42.7 °F 30.08 in NNW 2.0 mph 3.0 mph 87% 0.00 in 0 W/m2
22:54 45.8 °F 42.4 °F 30.08 in NW 4.0 mph 5.0 mph 88% 0.00 in 0 W/m2
23:00 45.3 °F 42.2 °F 30.08 in NW 3.0 mph 3.0 mph 89% 0.00 in 0 W/m2
23:06 44.9 °F 41.9 °F 30.08 in NW 2.0 mph 3.0 mph 89% 0.00 in 0 W/m2
23:12 44.6 °F 41.8 °F 30.08 in NW 2.0 mph 3.0 mph 90% 0.00 in 0 W/m2
23:18 44.5 °F 41.7 °F 30.08 in NW 2.0 mph 3.0 mph 90% 0.00 in 0 W/m2
23:24 44.3 °F 41.6 °F 30.09 in NW 1.0 mph 2.0 mph 90% 0.00 in 0 W/m2
23:30 44.1 °F 41.6 °F 30.09 in NW 2.0 mph 2.0 mph 91% 0.00 in 0 W/m2
23:36 44.0 °F 41.5 °F 30.09 in NW 1.0 mph 2.0 mph 91% 0.00 in 0 W/m2
23:42 43.9 °F 41.4 °F 30.10 in Calm   1.0 mph 91% 0.00 in 0 W/m2
23:48 43.8 °F 41.3 °F 30.10 in NW 1.0 mph 2.0 mph 91% 0.00 in 0 W/m2
23:54 43.9 °F 41.7 °F 30.10 in WSW 2.0 mph 3.0 mph 92% 0.00 in 0 W/m2
Country Meadow, Clay, NY, USA
Compliments of Weather Underground - 2 mb